Bushnell, South Dakota
Current Conditions -  °F | °C
As of 3:13 PM on Monday 22 Dec 2014 (Local Time) from KCNB Reporting Station
Light Rain Light Rain  
Wind Chill: 31°   Ceiling: 200
Heat Index: 38°   Visibility: 2mi
Dew Point: 38°   Wind: 10mph
Humidity: 99%   Direction: 120°ESE
Pressure: 29.45"   Gusts: NA
Location:  44.4253°N, 96.5963°W
Report Text: KCNB 222113Z AUTO 12009KT 2SM -RA OVC002 03/03 A2945 RMK AO2 T00330031
Loading
Personal Weather Stations






























Interactive Weather Map New forecast layout! Learn more

10-Day Weather Forecast

Advertisements
Track Severe Weather on mobile